ADDS METAR Data INFO
IDs: Format: Raw Decoded Include TAF

Data at: 2357 UTC 23 Feb 2018

KI19 232335Z AUTO 24006KT 10SM SCT120 14/12 A3023 RMK AO2 T01360121
KI19 232315Z AUTO 24005KT 10SM SCT120 14/13 A3022 RMK AO2 T01380125
KI19 232255Z AUTO 25008KT 10SM SCT012 BKN019 BKN120 14/13 A3022 RMK AO2 T01410127
KI19 232235Z AUTO 27007KT 10SM BKN012 OVC019 14/13 A3024 RMK AO2 T01440130
KI19 232215Z AUTO 26007KT 10SM OVC012 15/13 A3022 RMK AO2 T01450132
KI19 232155Z AUTO 28008G15KT 10SM BKN012 OVC017 15/13 A3022 RMK AO2 T01470134
KI19 232135Z AUTO 28006KT 10SM SCT010 BKN013 OVC031 15/14 A3021 RMK AO2 T01490138
KI19 232115Z AUTO 25013G16KT 10SM SCT011 BKN016 OVC038 15/14 A3021 RMK AO2 T01520141
KI19 232055Z AUTO 28004KT 10SM BKN011 BKN042 15/14 A3021 RMK AO2 60001 T01510141
KI19 232035Z AUTO 28005KT 10SM SCT009 SCT075 15/15 A3021 RMK AO2 T01520146
KI19 232015Z AUTO 27005KT 10SM SCT007 SCT021 BKN055 15/15 A3020 RMK AO2 T01520146
KI19 231955Z AUTO 27008KT 3SM DZ BKN007 BKN021 OVC035 15/15 A3020 RMK AO2 P0001 T01520147
KI19 231935Z AUTO 28008G14KT 2 1/2SM +RA OVC007 16/15 A3021 RMK AO2 T01560151
KI19 231915Z AUTO 27009KT 2SM DZ OVC005 16/15 A3020 RMK AO2 T01580154
KI19 231855Z AUTO 24007G14KT 1 1/2SM DZ OVC005 16/16 A3020 RMK AO2 T01600155
KI19 231835Z AUTO 25012KT 1 3/4SM DZ OVC008 16/15 A3020 RMK AO2 T01580153
KI19 231815Z AUTO 25011KT 1 1/2SM -RA OVC008 16/15 A3021 RMK AO2 T01580152
KI19 231755Z AUTO 25013G21KT 7SM OVC008 16/15 A3022 RMK AO2 P0001 60004 T01570151 10157 20097
KI19 231735Z AUTO 24012G19KT 1 3/4SM RA OVC008 16/15 A3022 RMK AO2 T01560150
KI19 231715Z AUTO 24015G21KT 3SM BR OVC008 16/15 A3022 RMK AO2 T01560150
KI19 231655Z AUTO 24016G22KT 3SM -DZ OVC008 15/15 A3022 RMK AO2 T01540146
KI19 231635Z AUTO 24012G21KT 5SM BR OVC008 15/14 A3022 RMK AO2 T01510144
KI19 231615Z AUTO 22014G21KT 2SM RA OVC008 15/14 A3021 RMK AO2 T01510141
KI19 231555Z AUTO 23016G23KT 7SM OVC008 15/14 A3021 RMK AO2 P0001 T01500140
KI19 231535Z AUTO 22015G24KT 10SM OVC006 15/14 A3021 RMK AO2 T01450136
KI19 231515Z AUTO 23013G21KT 10SM OVC006 14/14 A3020 RMK AO2 T01410135
KI19 231455Z AUTO 21012G17KT 10SM OVC006 14/13 A3019 RMK AO2 60002 T01380133
KI19 231435Z AUTO 22012G17KT 10SM OVC004 13/13 A3021 RMK AO2 T01340130
KI19 231415Z AUTO 20012KT 10SM OVC004 13/13 A3021 RMK AO2 T01280125
KI19 231355Z AUTO 21012KT 10SM OVC006 13/13 A3021 RMK AO2 P0001 T01290125
KI19 231335Z AUTO 19009KT 10SM BKN004 OVC009 13/12 A3020 RMK AO2 T01250122
KI19 231315Z AUTO 18008KT 7SM -DZ OVC002 12/12 A3020 RMK AO2 T01180115
KI19 231255Z AUTO 18007KT 10SM OVC002 12/11 A3019 RMK AO2 P0001 T01160113
KI19 231235Z AUTO 16011G14KT 7SM RA OVC002 11/11 A3018 RMK AO2 P0001 T01130110
KI19 231215Z AUTO 16012KT 7SM -RA OVC002 10/10 A3020 RMK AO2 P0001 T01040101
KI19 231155Z AUTO 17006KT 5SM RA OVC002 10/10 A3023 RMK AO2 60002 70016 T00970095 10097 20063
KI19 231135Z AUTO 18008KT 7SM -RA OVC002 09/09 A3024 RMK AO2 T00910090
KI19 231115Z AUTO 18007KT 5SM RA BKN002 OVC008 09/08 A3026 RMK AO2 T00850083
KI19 231055Z AUTO 17005KT 5SM -RA BKN002 OVC006 08/08 A3026 RMK AO2 T00800079
KI19 231035Z AUTO 17006KT 4SM -RA OVC002 08/08 A3026 RMK AO2 T00770076
KI19 231015Z AUTO 16005KT 3SM -RA BKN002 OVC006 08/07 A3027 RMK AO2 T00750073
KI19 230955Z AUTO 15005KT 3SM -RA OVC002 07/07 A3027 RMK AO2 P0001 T00730072
KI19 230935Z AUTO 00000KT 1 1/2SM RA OVC002 07/07 A3029 RMK AO2 T00720071
KI19 230915Z AUTO 16004KT 1 1/4SM RA OVC002 07/07 A3030 RMK AO2 T00700070
KI19 230855Z AUTO 00000KT 1SM -DZ OVC003 07/07 A3029 RMK AO2 60001 T00690068
KI19 230835Z AUTO 16005KT 1SM BR OVC003 07/07 A3031 RMK AO2 T00680067
KI19 230815Z AUTO 14003KT 1 1/4SM BR OVC003 07/07 A3032 RMK AO2 T00670066
KI19 230755Z AUTO 15003KT 1 1/4SM BR OVC003 07/07 A3033 RMK AO2 P0001 T00660065
KI19 230735Z AUTO 00000KT 1 3/4SM BR OVC003 07/06 A3033 RMK AO2 T00650063
KI19 230715Z AUTO 15004KT 2SM BR OVC003 07/06 A3034 RMK AO2 T00650063
KI19 230655Z AUTO 14004KT 1 3/4SM BR OVC003 07/06 A3034 RMK AO2 T00650062
KI19 230635Z AUTO 14003KT 1 3/4SM BR OVC005 07/06 A3035 RMK AO2 T00650062
KI19 230615Z AUTO 13004KT 2SM BR OVC005 06/06 A3036 RMK AO2 T00640062
KI19 230555Z AUTO 12004KT 2SM BR OVC005 06/06 A3037 RMK AO2 P0001 60004 T00640061 10070 20062 400790021
KI19 230535Z AUTO 13004KT 2 1/2SM BR OVC005 06/06 A3037 RMK AO2 T00630061
KI19 230515Z AUTO 12004KT 2 1/2SM BR OVC005 06/06 A3037 RMK AO2 T00630060
KI19 230455Z AUTO 12003KT 10SM OVC005 07/06 A3038 RMK AO2 T00650060
KI19 230436Z AUTO 13004KT 10SM OVC005 06/06 A3038 RMK AO2 T00630060
KI19 230415Z AUTO 12006KT 5SM BR OVC005 06/06 A3038 RMK AO2 T00630061
KI19 230355Z AUTO 13005KT 2 1/2SM BR OVC005 06/06 A3039 RMK AO2 P0001 T00630060
KI19 230335Z AUTO 13006KT 3SM BR OVC005 06/06 A3040 RMK AO2 T00630060
KI19 230315Z AUTO 14003KT 3SM BR OVC005 06/06 A3041 RMK AO2 T00630060
KI19 230255Z AUTO 12005KT 4SM BR OVC005 06/06 A3040 RMK AO2 60002 T00630060
KI19 230235Z AUTO 13005KT 5SM BR OVC005 06/06 A3041 RMK AO2 T00630058
KI19 230215Z AUTO 13005KT 7SM OVC005 06/06 A3041 RMK AO2 T00630060
KI19 230155Z AUTO 12007KT 5SM BR OVC005 06/06 A3040 RMK AO2 P0001 T00630060
KI19 230135Z AUTO 12007KT 5SM BR OVC005 06/06 A3042 RMK AO2 T00630058
KI19 230115Z AUTO 11003KT 5SM BR OVC007 06/06 A3042 RMK AO2 T00630058
KI19 230055Z AUTO 10004KT 4SM BR OVC009 07/06 A3041 RMK AO2 P0001 T00650056
KI19 230035Z AUTO 11004KT 10SM OVC009 07/05 A3042 RMK AO2 P0001 T00680053
KI19 230015Z AUTO 12007KT 10SM OVC009 07/05 A3042 RMK AO2 P0001 T00700052
KI19 222355Z AUTO 10005KT 10SM OVC009 07/05 A3041 RMK AO2 60003 T00700052 10079 20070
KI19 222335Z AUTO 11008KT 10SM OVC012 07/05 A3040 RMK AO2 T00700052
KI19 222315Z AUTO 12008KT 10SM OVC010 07/05 A3039 RMK AO2 T00710052
KI19 222255Z AUTO 11009KT 10SM OVC012 07/05 A3039 RMK AO2 P0001 T00720051
KI19 222235Z AUTO 11006KT 10SM OVC014 07/05 A3039 RMK AO2 P0001 T00730050
KI19 222215Z AUTO 09007KT 10SM OVC014 08/05 A3041 RMK AO2 P0001 T00750050
KI19 222155Z AUTO 11008KT 10SM OVC012 08/05 A3042 RMK AO2 T00750050
KI19 222135Z AUTO 11005KT 10SM OVC014 08/05 A3043 RMK AO2 T00750049
KI19 222115Z AUTO 11007G14KT 080V140 10SM OVC014 08/05 A3042 RMK AO2 T00760047
KI19 222055Z AUTO 12007KT 10SM OVC014 08/05 A3042 RMK AO2 P0001 60002 T00770047
KI19 222035Z AUTO 10008G14KT 10SM OVC014 08/05 A3042 RMK AO2 P0001 T00760045
KI19 222015Z AUTO 11006KT 10SM OVC014 08/05 A3042 RMK AO2 T00770045
KI19 221955Z AUTO 11008G14KT 10SM OVC014 08/05 A3042 RMK AO2 T00790046
KI19 221935Z AUTO 10011G16KT 10SM OVC014 08/04 A3041 RMK AO2 T00750042
KI19 221915Z AUTO 10007KT 10SM OVC014 07/04 A3043 RMK AO2 T00720041
KI19 221855Z AUTO 10008G14KT 10SM OVC014 07/04 A3044 RMK AO2 P0001 T00710041
KI19 221835Z AUTO 10008G15KT 10SM OVC014 07/04 A3044 RMK AO2 T00700040
KI19 221815Z AUTO 11008G17KT 050V130 10SM OVC016 07/04 A3044 RMK AO2 T00700040
KI19 221755Z AUTO 08008G14KT 060V120 10SM OVC016 07/04 A3044 RMK AO2 P0001 60007 T00710041 10071 20027
KI19 221735Z AUTO 07012G18KT 10SM OVC014 07/04 A3044 RMK AO2 P0001 T00660039
KI19 221715Z AUTO 06009G16KT 020V110 10SM OVC014 06/04 A3046 RMK AO2 T00610041
KI19 221655Z AUTO 04008G16KT 10SM OVC012 06/04 A3049 RMK AO2 P0001 T00550039
KI19 221635Z AUTO 06008KT 10SM BKN010 OVC015 05/04 A3049 RMK AO2 P0001 T00510040
KI19 221615Z AUTO 03006KT 7SM OVC008 05/04 A3050 RMK AO2 T00450040
KI19 221555Z AUTO 02005KT 3SM -DZ BKN008 OVC012 04/04 A3050 RMK AO2 P0001 T00400036
KI19 221535Z AUTO 02004KT 3SM DZ OVC012 04/04 A3050 RMK AO2 T00410037
KI19 221515Z AUTO 02005KT 10SM DZ OVC012 04/04 A3050 RMK AO2 T00420035
KI19 221455Z AUTO 04004KT 10SM OVC012 04/03 A3050 RMK AO2 P0002 60004 T00400029
KI19 221435Z AUTO 02006KT 10SM BKN010 BKN047 04/03 A3049 RMK AO2 P0001 T00380028
KI19 221415Z AUTO 10014G25KT 10SM SCT010 04/03 A3034 RMK AO2 P0001 T00350026
KI19 221355Z AUTO 09019G25KT 10SM SCT010 SCT028 SCT043 03/02 A3036 RMK AO2 P0001 T00310022
KI19 221335Z AUTO 09016G25KT 10SM -RA BKN045 03/02 A3035 RMK AO2 P0001 T00300021
KI19 221315Z AUTO 09010G21KT 10SM RA OVC043 03/02 A3041 RMK AO2 T00300020
KI19 221255Z AUTO 08008G16KT 10SM DZ OVC045 03/02 A3041 RMK AO2 P0001 T00300019
KI19 221235Z AUTO 08010G18KT 10SM -RA SCT038 OVC045 03/02 A3041 RMK AO2 P0001 T00290019
KI19 221215Z AUTO 08008G14KT 050V120 10SM -RA BKN045 BKN070 OVC075 03/02 A3042 RMK AO2 T00280019